Time;durP1;ratioP1;P1;durP2;ratioP2;P2;SDS_P1;SDS_P2;PMS_P1;PMS_P2;Temp;Humidity;BMP_temperature;BMP_pressure;BME280_temperature;BME280_humidity;BME280_pressure;Samples;Min_cycle;Max_cycle;Signal;HPM_P1;HPM_P2
2021/12/03 00:00:41;;;;;;;;;28.00;27.25;;;;;;;;5111824;27;45187;-64
2021/12/03 00:03:07;;;;;;;;;27.25;25.50;;;;;;;;5107611;27;46286;-64
2021/12/03 00:05:33;;;;;;;;;27.00;26.25;;;;;;;;5091187;27;45472;-64
2021/12/03 00:07:58;;;;;;;;;29.25;26.50;;;;;;;;5110468;27;45732;-63
2021/12/03 00:10:25;;;;;;;;;30.00;28.00;;;;;;;;5094605;27;45370;-64
2021/12/03 00:12:52;;;;;;;;;27.25;25.00;;;;;;;;5079847;27;47678;-65
2021/12/03 00:15:17;;;;;;;;;29.00;26.25;;;;;;;;5092848;27;45461;-63
2021/12/03 00:17:43;;;;;;;;;25.50;23.75;;;;;;;;5110617;27;45443;-66
2021/12/03 00:20:11;;;;;;;;;25.75;24.50;;;;;;;;5093147;27;45519;-63
2021/12/03 00:22:36;;;;;;;;;25.25;25.25;;;;;;;;5089363;27;47883;-65
2021/12/03 00:25:02;;;;;;;;;24.25;24.25;;;;;;;;5098826;27;45416;-65
2021/12/03 00:27:27;;;;;;;;;26.75;24.00;;;;;;;;5094037;27;45483;-65
2021/12/03 00:29:52;;;;;;;;;26.75;23.50;;;;;;;;5090815;27;45461;-65
2021/12/03 00:32:18;;;;;;;;;32.50;27.00;;;;;;;;5104522;27;46562;-65
2021/12/03 00:34:43;;;;;;;;;24.00;24.00;;;;;;;;5102222;27;45515;-66
2021/12/03 00:37:08;;;;;;;;;28.25;25.50;;;;;;;;5079501;27;45578;-65
2021/12/03 00:39:33;;;;;;;;;27.25;23.50;;;;;;;;5101194;27;45578;-63
2021/12/03 00:42:01;;;;;;;;;28.00;26.25;;;;;;;;5100677;27;46483;-65
2021/12/03 00:44:29;;;;;;;;;43.50;36.75;;;;;;;;5101634;27;45446;-65
2021/12/03 00:46:54;;;;;;;;;31.75;30.25;;;;;;;;5101402;27;45418;-65
2021/12/03 00:49:19;;;;;;;;;30.75;27.75;;;;;;;;5096766;27;45494;-65
2021/12/03 00:51:45;;;;;;;;;31.25;29.00;;;;;;;;5089821;27;45841;-65
2021/12/03 00:54:10;;;;;;;;;29.25;24.25;;;;;;;;5082080;27;46194;-65
2021/12/03 00:56:36;;;;;;;;;33.25;30.75;;;;;;;;5109630;27;45409;-65
2021/12/03 00:59:01;;;;;;;;;29.50;26.50;;;;;;;;5112097;27;45351;-65
2021/12/03 01:01:26;;;;;;;;;27.50;25.75;;;;;;;;5079435;27;46721;-65
2021/12/03 01:03:51;;;;;;;;;30.50;24.50;;;;;;;;5099684;27;45334;-65
2021/12/03 01:06:17;;;;;;;;;29.00;27.25;;;;;;;;5093065;27;45452;-63
2021/12/03 01:08:42;;;;;;;;;30.50;26.50;;;;;;;;5109872;27;45317;-63
2021/12/03 01:11:09;;;;;;;;;34.50;26.75;;;;;;;;5109518;27;45356;-65
2021/12/03 01:13:35;;;;;;;;;25.50;22.00;;;;;;;;5094841;27;45523;-64
2021/12/03 01:16:01;;;;;;;;;29.50;29.50;;;;;;;;5099620;27;45428;-64
2021/12/03 01:18:26;;;;;;;;;35.50;32.50;;;;;;;;5111373;27;45535;-64
2021/12/03 01:20:52;;;;;;;;;34.25;33.25;;;;;;;;5112458;27;45470;-64
2021/12/03 01:23:17;;;;;;;;;38.75;36.50;;;;;;;;5113147;27;45510;-64
2021/12/03 01:25:42;;;;;;;;;32.25;29.75;;;;;;;;5114912;27;45305;-64
2021/12/03 01:28:08;;;;;;;;;32.50;30.75;;;;;;;;5116082;27;45379;-64
2021/12/03 01:30:34;;;;;;;;;28.25;26.25;;;;;;;;5106992;27;45784;-64
2021/12/03 01:33:00;;;;;;;;;25.00;22.00;;;;;;;;5091551;27;46119;-64
2021/12/03 01:35:27;;;;;;;;;32.50;28.00;;;;;;;;5112084;27;45539;-64
2021/12/03 01:37:52;;;;;;;;;29.25;26.25;;;;;;;;5113651;27;45314;-64
2021/12/03 01:40:21;;;;;;;;;24.75;24.75;;;;;;;;5099474;27;45575;-64
2021/12/03 01:42:46;;;;;;;;;14.00;12.50;;;;;;;;5093365;27;45627;-64
2021/12/03 01:45:16;;;;;;;;;30.50;25.25;;;;;;;;5112752;27;45424;-64
2021/12/03 01:47:43;;;;;;;;;18.50;18.50;;;;;;;;5091699;27;45491;-64
2021/12/03 01:50:09;;;;;;;;;21.25;21.25;;;;;;;;5084911;27;48489;-64
2021/12/03 01:52:34;;;;;;;;;24.75;21.50;;;;;;;;5083360;27;45581;-64
2021/12/03 01:55:01;;;;;;;;;21.25;19.50;;;;;;;;5100173;27;45470;-63
2021/12/03 01:57:27;;;;;;;;;27.00;24.00;;;;;;;;5103735;27;45602;-64
2021/12/03 01:59:52;;;;;;;;;24.50;21.25;;;;;;;;5086564;27;48472;-63
2021/12/03 02:02:17;;;;;;;;;22.75;20.25;;;;;;;;5102249;27;45904;-63
2021/12/03 02:04:43;;;;;;;;;12.50;12.50;;;;;;;;5084204;27;45636;-63
2021/12/03 02:07:08;;;;;;;;;19.00;18.00;;;;;;;;5082439;27;45586;-63
2021/12/03 02:09:34;;;;;;;;;22.75;21.25;;;;;;;;5103254;27;46407;-63
2021/12/03 02:11:59;;;;;;;;;22.25;19.00;;;;;;;;5105221;27;45581;-64
2021/12/03 02:14:24;;;;;;;;;22.25;21.50;;;;;;;;5104131;27;45300;-64
2021/12/03 02:16:49;;;;;;;;;21.50;20.25;;;;;;;;5103810;27;45330;-64
2021/12/03 02:19:15;;;;;;;;;18.00;16.25;;;;;;;;5099031;27;45476;-64
2021/12/03 02:21:41;;;;;;;;;19.25;18.25;;;;;;;;5101759;27;45456;-64
2021/12/03 02:24:06;;;;;;;;;20.50;16.75;;;;;;;;5103139;27;45308;-64
2021/12/03 02:26:31;;;;;;;;;13.75;13.75;;;;;;;;5085311;27;45492;-64
2021/12/03 02:28:56;;;;;;;;;20.00;18.25;;;;;;;;5103559;27;46152;-64
2021/12/03 02:31:23;;;;;;;;;15.75;13.25;;;;;;;;5097804;27;45317;-65
2021/12/03 02:33:49;;;;;;;;;15.50;13.75;;;;;;;;5117870;27;45308;-64
2021/12/03 02:36:14;;;;;;;;;18.00;16.00;;;;;;;;5105288;27;45455;-64
2021/12/03 02:38:40;;;;;;;;;16.75;12.00;;;;;;;;5103350;27;45421;-64
2021/12/03 02:41:05;;;;;;;;;20.75;16.00;;;;;;;;5103048;27;45610;-64
2021/12/03 02:43:31;;;;;;;;;14.25;13.25;;;;;;;;5100736;27;45479;-64
2021/12/03 02:45:57;;;;;;;;;14.25;14.25;;;;;;;;5100042;27;45431;-66
2021/12/03 02:48:23;;;;;;;;;19.50;16.25;;;;;;;;5101703;27;45675;-65
2021/12/03 02:50:49;;;;;;;;;16.00;15.50;;;;;;;;5083606;27;45470;-65
2021/12/03 02:53:14;;;;;;;;;14.50;13.50;;;;;;;;5105294;27;45325;-65
2021/12/03 02:55:40;;;;;;;;;10.25;10.00;;;;;;;;5096422;27;45610;-64
2021/12/03 02:58:05;;;;;;;;;12.25;9.75;;;;;;;;5081856;27;47173;-64
2021/12/03 03:00:32;;;;;;;;;14.75;12.00;;;;;;;;5102210;27;45529;-64
2021/12/03 03:02:57;;;;;;;;;13.25;12.75;;;;;;;;5083028;27;45937;-64
2021/12/03 03:05:23;;;;;;;;;13.25;11.50;;;;;;;;5102237;27;45377;-64
2021/12/03 03:07:49;;;;;;;;;12.50;12.00;;;;;;;;5105103;27;46588;-65
2021/12/03 03:10:18;;;;;;;;;11.50;11.50;;;;;;;;5113879;27;45432;-64
2021/12/03 03:12:43;;;;;;;;;12.50;11.50;;;;;;;;5114012;27;45379;-64
2021/12/03 03:15:09;;;;;;;;;10.50;10.50;;;;;;;;5093070;27;45724;-64
2021/12/03 03:17:36;;;;;;;;;11.00;9.00;;;;;;;;5111684;27;45543;-64
2021/12/03 03:20:02;;;;;;;;;11.75;10.75;;;;;;;;5111249;27;45398;-64
2021/12/03 03:22:27;;;;;;;;;8.50;7.75;;;;;;;;5114013;27;45487;-64
2021/12/03 03:24:53;;;;;;;;;12.25;8.75;;;;;;;;5093146;27;45690;-64
2021/12/03 03:27:19;;;;;;;;;11.00;10.00;;;;;;;;5109489;27;45706;-65
2021/12/03 03:29:45;;;;;;;;;8.00;8.00;;;;;;;;5090992;27;45625;-63
2021/12/03 03:32:11;;;;;;;;;11.00;10.25;;;;;;;;5104418;27;45597;-64
2021/12/03 03:34:36;;;;;;;;;13.50;11.50;;;;;;;;5100280;27;45371;-65
2021/12/03 03:37:02;;;;;;;;;11.25;8.25;;;;;;;;5081103;27;48567;-65
2021/12/03 03:39:27;;;;;;;;;14.50;11.75;;;;;;;;5101396;27;45384;-65
2021/12/03 03:41:53;;;;;;;;;11.25;11.25;;;;;;;;5101980;27;45446;-65
2021/12/03 03:44:19;;;;;;;;;11.00;11.00;;;;;;;;5084365;27;45459;-65
2021/12/03 03:46:44;;;;;;;;;8.25;8.25;;;;;;;;5101555;27;45565;-65
2021/12/03 03:49:10;;;;;;;;;11.75;10.50;;;;;;;;5099123;27;45353;-65
2021/12/03 03:51:35;;;;;;;;;9.75;8.75;;;;;;;;5102016;27;45248;-65
2021/12/03 03:54:01;;;;;;;;;11.50;10.75;;;;;;;;5084154;27;45487;-65
2021/12/03 03:56:27;;;;;;;;;11.00;10.00;;;;;;;;5102200;27;46468;-64
2021/12/03 03:58:52;;;;;;;;;10.75;10.75;;;;;;;;5084103;27;45266;-64
2021/12/03 04:01:18;;;;;;;;;11.25;9.50;;;;;;;;5079874;27;45262;-64
2021/12/03 04:03:46;;;;;;;;;13.00;10.00;;;;;;;;5083178;27;45475;-65
2021/12/03 04:06:11;;;;;;;;;11.75;8.00;;;;;;;;5083833;27;47788;-65
2021/12/03 04:08:37;;;;;;;;;9.50;8.50;;;;;;;;5102031;27;45479;-65
2021/12/03 04:11:03;;;;;;;;;11.25;8.50;;;;;;;;5102293;27;45787;-65
2021/12/03 04:13:28;;;;;;;;;9.75;9.75;;;;;;;;5080787;27;45480;-64
2021/12/03 04:15:54;;;;;;;;;11.50;8.25;;;;;;;;5099976;27;45667;-65
2021/12/03 04:18:19;;;;;;;;;8.00;7.50;;;;;;;;5097958;27;45452;-65
2021/12/03 04:20:45;;;;;;;;;13.75;11.25;;;;;;;;5116123;27;45537;-66
2021/12/03 04:23:15;;;;;;;;;11.00;11.00;;;;;;;;5122065;27;45462;-65
2021/12/03 04:25:40;;;;;;;;;9.00;9.00;;;;;;;;5115330;27;45601;-65
2021/12/03 04:28:05;;;;;;;;;10.00;8.00;;;;;;;;5096059;27;45515;-65
2021/12/03 04:30:31;;;;;;;;;5.25;5.25;;;;;;;;5115873;27;45291;-65
2021/12/03 04:32:57;;;;;;;;;5.75;5.75;;;;;;;;5095974;27;45261;-65
2021/12/03 04:35:22;;;;;;;;;7.75;7.00;;;;;;;;5095606;27;45644;-65
2021/12/03 04:37:48;;;;;;;;;8.00;8.00;;;;;;;;5113938;27;45316;-65
2021/12/03 04:40:15;;;;;;;;;7.75;7.00;;;;;;;;5114568;27;45172;-65
2021/12/03 04:42:40;;;;;;;;;7.00;7.00;;;;;;;;5115971;27;45294;-65
2021/12/03 04:45:07;;;;;;;;;15.50;11.00;;;;;;;;5093542;27;47509;-65
2021/12/03 04:47:32;;;;;;;;;9.50;8.25;;;;;;;;5089777;27;45965;-65
2021/12/03 04:49:57;;;;;;;;;7.00;7.00;;;;;;;;5083230;27;45437;-65
2021/12/03 04:52:23;;;;;;;;;10.00;7.75;;;;;;;;5098078;27;45367;-65
2021/12/03 04:54:48;;;;;;;;;10.00;8.00;;;;;;;;5100597;27;45763;-65
2021/12/03 04:57:13;;;;;;;;;11.50;7.50;;;;;;;;5101558;27;45503;-65
2021/12/03 04:59:39;;;;;;;;;8.00;7.00;;;;;;;;5101925;27;45822;-65
2021/12/03 05:02:04;;;;;;;;;8.00;8.00;;;;;;;;5101755;27;45460;-65
2021/12/03 05:04:36;;;;;;;;;11.00;8.75;;;;;;;;5112687;27;45565;-65
2021/12/03 05:07:16;;;;;;;;;8.00;8.00;;;;;;;;5113020;27;45392;-65
2021/12/03 05:09:41;;;;;;;;;7.75;6.75;;;;;;;;5084890;27;45481;-65
2021/12/03 05:12:07;;;;;;;;;8.00;7.00;;;;;;;;5108521;27;45485;-65
2021/12/03 05:14:32;;;;;;;;;6.00;6.00;;;;;;;;5109744;27;45759;-65
2021/12/03 05:16:57;;;;;;;;;11.25;8.00;;;;;;;;5109794;27;45474;-65
2021/12/03 05:19:23;;;;;;;;;6.25;6.00;;;;;;;;5095884;27;45462;-65
2021/12/03 05:21:48;;;;;;;;;7.75;7.75;;;;;;;;5112221;27;45395;-65
2021/12/03 05:24:14;;;;;;;;;7.25;6.75;;;;;;;;5109752;27;45526;-64
2021/12/03 05:26:40;;;;;;;;;6.00;6.00;;;;;;;;5109407;27;45381;-65
2021/12/03 05:29:06;;;;;;;;;7.50;6.00;;;;;;;;5091262;27;45385;-65
2021/12/03 05:31:31;;;;;;;;;8.00;4.25;;;;;;;;5113119;27;45387;-65
2021/12/03 05:33:57;;;;;;;;;3.25;3.25;;;;;;;;5098499;27;46576;-64
2021/12/03 05:36:22;;;;;;;;;7.00;7.00;;;;;;;;5084327;27;45278;-64
2021/12/03 05:38:47;;;;;;;;;6.75;6.75;;;;;;;;5101104;27;45333;-64
2021/12/03 05:41:13;;;;;;;;;2.00;1.00;;;;;;;;5101227;27;45305;-64
2021/12/03 05:43:38;;;;;;;;;5.00;5.00;;;;;;;;5098800;27;46028;-64
2021/12/03 05:46:03;;;;;;;;;3.00;3.00;;;;;;;;5098355;27;45388;-64
2021/12/03 05:48:29;;;;;;;;;5.50;5.50;;;;;;;;5100122;27;45318;-64
2021/12/03 05:50:54;;;;;;;;;3.75;3.75;;;;;;;;5100638;27;45518;-64
2021/12/03 05:53:20;;;;;;;;;5.50;3.00;;;;;;;;5082549;27;45264;-63
2021/12/03 05:55:45;;;;;;;;;6.00;5.00;;;;;;;;5099706;27;45317;-63
2021/12/03 05:58:10;;;;;;;;;6.25;5.00;;;;;;;;5079039;27;45374;-65
2021/12/03 06:00:37;;;;;;;;;3.00;3.00;;;;;;;;5100141;27;45458;-64
2021/12/03 06:03:03;;;;;;;;;6.00;4.25;;;;;;;;5100635;27;45588;-64
2021/12/03 06:05:30;;;;;;;;;4.50;4.50;;;;;;;;5101627;27;45414;-64
2021/12/03 06:07:55;;;;;;;;;2.50;2.00;;;;;;;;5084651;27;45160;-65
2021/12/03 06:10:20;;;;;;;;;3.00;3.00;;;;;;;;5116788;27;45358;-64
2021/12/03 06:12:46;;;;;;;;;5.00;3.00;;;;;;;;5107668;27;45650;-64
2021/12/03 06:15:12;;;;;;;;;4.00;4.00;;;;;;;;5112290;27;45479;-65
2021/12/03 06:17:38;;;;;;;;;6.75;3.75;;;;;;;;5106244;27;45524;-64
2021/12/03 06:20:04;;;;;;;;;5.50;5.50;;;;;;;;5105849;27;45281;-64
2021/12/03 06:22:29;;;;;;;;;6.00;6.00;;;;;;;;5104517;27;46701;-64
2021/12/03 06:24:56;;;;;;;;;2.00;2.00;;;;;;;;5112303;27;45393;-64
2021/12/03 06:27:24;;;;;;;;;7.75;6.00;;;;;;;;5109028;27;45446;-63
2021/12/03 06:29:49;;;;;;;;;5.75;4.00;;;;;;;;5087307;27;45499;-64
2021/12/03 06:32:15;;;;;;;;;4.00;4.00;;;;;;;;5103563;27;46566;-64
2021/12/03 06:34:40;;;;;;;;;6.00;6.00;;;;;;;;5101381;27;45670;-66
2021/12/03 06:37:05;;;;;;;;;8.50;4.75;;;;;;;;5092835;27;45526;-65
2021/12/03 06:39:31;;;;;;;;;5.50;5.50;;;;;;;;5114140;27;45273;-65
2021/12/03 06:41:56;;;;;;;;;7.00;3.00;;;;;;;;5105059;27;45764;-64
2021/12/03 06:44:23;;;;;;;;;6.25;4.00;;;;;;;;5105040;27;45577;-64
2021/12/03 06:46:48;;;;;;;;;3.50;3.00;;;;;;;;5104396;27;44897;-64
2021/12/03 06:49:13;;;;;;;;;5.50;5.50;;;;;;;;5114926;27;45336;-65
2021/12/03 06:51:44;;;;;;;;;3.00;3.00;;;;;;;;5095102;27;47062;-64
2021/12/03 06:54:10;;;;;;;;;5.50;5.50;;;;;;;;5105179;27;45571;-63
2021/12/03 06:56:48;;;;;;;;;8.00;6.00;;;;;;;;5104864;27;45388;-64
2021/12/03 06:59:14;;;;;;;;;5.00;5.00;;;;;;;;5101083;27;45520;-66
2021/12/03 07:01:39;;;;;;;;;7.75;6.00;;;;;;;;5086032;27;47287;-65
2021/12/03 07:04:04;;;;;;;;;6.25;6.25;;;;;;;;5106074;27;46029;-65
2021/12/03 07:06:29;;;;;;;;;7.25;7.25;;;;;;;;5114951;27;45431;-65
2021/12/03 07:08:55;;;;;;;;;12.00;10.00;;;;;;;;5091229;27;45499;-65
2021/12/03 07:11:20;;;;;;;;;9.00;7.75;;;;;;;;5101021;27;46313;-65
2021/12/03 07:13:45;;;;;;;;;10.25;8.25;;;;;;;;5108488;27;45434;-64
2021/12/03 07:16:11;;;;;;;;;9.25;7.00;;;;;;;;5106939;27;45564;-65
2021/12/03 07:18:37;;;;;;;;;6.75;6.00;;;;;;;;5109113;27;45371;-65
2021/12/03 07:21:03;;;;;;;;;2.00;2.00;;;;;;;;5102186;27;45845;-66
2021/12/03 07:23:29;;;;;;;;;6.00;4.25;;;;;;;;5104345;27;45398;-65
2021/12/03 07:25:54;;;;;;;;;2.75;2.00;;;;;;;;5109488;27;45213;-65
2021/12/03 07:28:19;;;;;;;;;2.50;2.50;;;;;;;;5101507;27;45446;-65
2021/12/03 07:30:44;;;;;;;;;6.00;6.00;;;;;;;;5098730;27;46325;-65
2021/12/03 07:33:12;;;;;;;;;2.25;2.25;;;;;;;;5103363;27;45472;-65
2021/12/03 07:35:37;;;;;;;;;3.00;3.00;;;;;;;;5102924;27;45577;-65
2021/12/03 07:38:02;;;;;;;;;3.00;3.00;;;;;;;;5084347;27;45322;-65
2021/12/03 07:40:28;;;;;;;;;2.75;2.75;;;;;;;;5099215;27;45731;-65
2021/12/03 07:42:53;;;;;;;;;6.50;4.25;;;;;;;;5100944;27;45316;-65
2021/12/03 07:45:18;;;;;;;;;5.25;4.75;;;;;;;;5084172;27;45425;-65
2021/12/03 07:47:44;;;;;;;;;4.00;2.75;;;;;;;;5102721;27;45916;-65
2021/12/03 07:50:10;;;;;;;;;5.00;4.50;;;;;;;;5083828;27;48456;-65
2021/12/03 07:52:35;;;;;;;;;5.75;3.00;;;;;;;;5099990;27;45665;-65
2021/12/03 07:55:01;;;;;;;;;4.75;4.75;;;;;;;;5105622;27;45348;-64
2021/12/03 07:57:27;;;;;;;;;5.00;4.50;;;;;;;;5112426;27;45623;-65
2021/12/03 07:59:52;;;;;;;;;3.50;2.25;;;;;;;;5110605;27;45850;-65
2021/12/03 08:02:17;;;;;;;;;4.25;4.25;;;;;;;;5092234;27;45721;-66
2021/12/03 08:04:43;;;;;;;;;3.75;2.00;;;;;;;;5112490;27;45424;-65
2021/12/03 08:07:12;;;;;;;;;5.25;2.75;;;;;;;;5096339;27;45350;-65
2021/12/03 08:09:37;;;;;;;;;3.00;3.00;;;;;;;;5100787;27;45775;-65
2021/12/03 08:12:03;;;;;;;;;4.50;4.50;;;;;;;;5083682;27;45510;-63
2021/12/03 08:14:28;;;;;;;;;3.75;3.00;;;;;;;;5083619;27;45368;-64
2021/12/03 08:16:53;;;;;;;;;4.50;4.50;;;;;;;;5102431;27;45275;-65
2021/12/03 08:19:19;;;;;;;;;0.25;0.25;;;;;;;;5097312;27;45285;-64
2021/12/03 08:21:44;;;;;;;;;7.50;2.00;;;;;;;;5105681;27;45555;-65
2021/12/03 08:24:09;;;;;;;;;5.00;3.50;;;;;;;;5086157;27;45425;-65
2021/12/03 08:26:35;;;;;;;;;1.50;1.00;;;;;;;;5102668;27;45382;-65
2021/12/03 08:29:00;;;;;;;;;6.25;3.75;;;;;;;;5080893;27;47506;-65
2021/12/03 08:31:26;;;;;;;;;2.75;2.75;;;;;;;;5114370;27;45530;-64
2021/12/03 08:33:52;;;;;;;;;4.50;3.25;;;;;;;;5102967;27;45566;-65
2021/12/03 08:36:17;;;;;;;;;2.00;2.00;;;;;;;;5100226;27;45424;-64
2021/12/03 08:38:44;;;;;;;;;2.00;2.00;;;;;;;;5099509;27;45340;-65
2021/12/03 08:41:11;;;;;;;;;3.00;3.00;;;;;;;;5082227;27;45548;-65
2021/12/03 08:43:36;;;;;;;;;2.00;2.00;;;;;;;;5111166;27;45512;-64
2021/12/03 08:46:09;;;;;;;;;4.25;3.00;;;;;;;;5094690;27;45504;-65
2021/12/03 08:48:38;;;;;;;;;2.00;2.00;;;;;;;;5111809;27;45800;-64
2021/12/03 08:56:28;;;;;;;;;3.00;3.00;;;;;;;;5101350;27;45494;-63
2021/12/03 08:58:54;;;;;;;;;5.50;3.00;;;;;;;;5100603;27;45324;-63
2021/12/03 09:01:19;;;;;;;;;3.25;3.00;;;;;;;;5097714;27;45494;-64
2021/12/03 09:03:44;;;;;;;;;3.00;3.00;;;;;;;;5111984;27;45419;-64
2021/12/03 09:06:10;;;;;;;;;6.00;4.25;;;;;;;;5109874;27;45243;-65
2021/12/03 09:08:35;;;;;;;;;1.75;1.75;;;;;;;;5109702;27;46591;-64
2021/12/03 09:11:00;;;;;;;;;2.75;2.75;;;;;;;;5107433;27;45411;-65
2021/12/03 09:13:26;;;;;;;;;7.00;7.00;;;;;;;;5113576;27;45193;-64
2021/12/03 09:16:24;;;;;;;;;5.75;5.00;;;;;;;;5112364;27;45384;-64
2021/12/03 09:18:46;;;;;;;;;3.00;3.00;;;;;;;;5107239;27;45872;-63
2021/12/03 09:21:22;;;;;;;;;6.25;4.75;;;;;;;;5109476;27;45435;-66
2021/12/03 09:26:42;;;;;;;;;3.00;2.00;;;;;;;;5042790;28;45716;-65
2021/12/03 09:29:13;;;;;;;;;3.50;3.50;;;;;;;;5037608;28;46668;-65
2021/12/03 09:31:42;;;;;;;;;3.50;3.50;;;;;;;;5020033;28;45485;-65
2021/12/03 09:34:10;;;;;;;;;3.00;3.00;;;;;;;;5034257;28;45642;-65
2021/12/03 09:36:39;;;;;;;;;3.00;3.00;;;;;;;;5040422;28;45600;-64
2021/12/03 09:39:05;;;;;;;;;4.00;4.00;;;;;;;;5044163;28;45716;-64
2021/12/03 09:41:31;;;;;;;;;2.25;2.25;;;;;;;;5028658;28;45412;-64
2021/12/03 09:43:56;;;;;;;;;7.50;6.00;;;;;;;;5038223;28;45427;-64
2021/12/03 09:46:24;;;;;;;;;5.00;3.25;;;;;;;;5053603;28;45426;-65
2021/12/03 09:51:33;;;;;;;;;7.25;6.00;;;;;;;;5040124;28;45492;-64
2021/12/03 09:56:31;;;;;;;;;4.25;4.25;;;;;;;;5049275;28;45557;-64
2021/12/03 10:05:11;;;;;;;;;7.75;6.75;;;;;;;;5116580;27;45393;-65
2021/12/03 10:15:26;;;;;;;;;6.50;6.00;;;;;;;;5104145;27;45368;-64
2021/12/03 10:18:04;;;;;;;;;6.50;5.50;;;;;;;;5085637;27;45507;-64
2021/12/03 10:20:35;;;;;;;;;3.25;3.25;;;;;;;;5103282;27;46980;-64
2021/12/03 10:41:28;;;;;;;;;5.75;3.00;;;;;;;;5112098;27;46291;-66
2021/12/03 10:49:41;;;;;;;;;5.00;3.50;;;;;;;;5114796;27;45405;-67
2021/12/03 11:07:54;;;;;;;;;4.00;4.00;;;;;;;;5115360;27;45334;-66
2021/12/03 11:57:18;;;;;;;;;1.75;1.75;;;;;;;;5001757;28;45707;-70
2021/12/03 11:59:52;;;;;;;;;2.50;2.50;;;;;;;;4997649;28;45586;-70
2021/12/03 12:38:42;;;;;;;;;1.00;1.00;;;;;;;;5099104;27;45361;-67
2021/12/03 12:41:12;;;;;;;;;2.00;2.00;;;;;;;;5108895;27;45341;-67
2021/12/03 13:08:24;;;;;;;;;2.00;2.00;;;;;;;;5041071;28;45317;-68
2021/12/03 13:11:57;;;;;;;;;2.00;2.00;;;;;;;;5039133;28;45203;-67
2021/12/03 13:13:48;;;;;;;;;4.00;2.00;;;;;;;;5050639;28;45546;-67
2021/12/03 13:56:30;;;;;;;;;2.50;2.50;;;;;;;;5113998;27;45459;-69
2021/12/03 14:49:06;;;;;;;;;4.25;3.00;;;;;;;;5090160;27;45489;-68
2021/12/03 14:51:29;;;;;;;;;3.00;2.75;;;;;;;;5095330;27;45952;-68
2021/12/03 14:57:07;;;;;;;;;2.00;2.00;;;;;;;;5101147;27;45591;-68
2021/12/03 14:59:34;;;;;;;;;2.25;2.25;;;;;;;;5092855;27;45545;-67
2021/12/03 15:02:25;;;;;;;;;2.00;2.00;;;;;;;;5086033;27;45634;-68
2021/12/03 15:04:59;;;;;;;;;1.00;1.00;;;;;;;;5098854;27;45426;-68
2021/12/03 15:07:35;;;;;;;;;2.75;2.00;;;;;;;;5104881;27;45577;-67
2021/12/03 15:10:04;;;;;;;;;3.75;3.75;;;;;;;;5090041;27;45518;-68
2021/12/03 15:30:27;;;;;;;;;1.75;1.75;;;;;;;;5111300;27;45269;-68
2021/12/03 15:33:07;;;;;;;;;2.00;2.00;;;;;;;;5110711;27;46112;-67
2021/12/03 16:53:12;;;;;;;;;4.75;4.00;;;;;;;;4938754;28;45353;-67
2021/12/03 16:55:37;;;;;;;;;4.25;4.25;;;;;;;;4936547;28;45458;-66
2021/12/03 16:58:03;;;;;;;;;1.25;1.25;;;;;;;;4936487;28;45252;-69
2021/12/03 17:00:41;;;;;;;;;1.00;1.00;;;;;;;;4939333;28;45536;-67
2021/12/03 17:03:23;;;;;;;;;1.00;1.00;;;;;;;;4988602;28;45384;-68
2021/12/03 17:13:54;;;;;;;;;2.00;2.00;;;;;;;;4990580;28;45568;-67
2021/12/03 17:25:21;;;;;;;;;2.50;2.00;;;;;;;;4952552;28;45454;-71
2021/12/03 17:51:43;;;;;;;;;7.25;5.75;;;;;;;;5011752;28;46412;-72
2021/12/03 17:56:44;;;;;;;;;6.50;4.50;;;;;;;;5008246;28;45485;-70
2021/12/03 18:04:23;;;;;;;;;7.00;6.25;;;;;;;;5026499;28;45568;-75
2021/12/03 18:06:57;;;;;;;;;9.50;8.00;;;;;;;;5035270;28;45536;-70
2021/12/03 18:09:46;;;;;;;;;12.25;12.00;;;;;;;;5047535;27;45771;-68
2021/12/03 18:15:36;;;;;;;;;9.50;8.50;;;;;;;;5110900;27;45439;-69
2021/12/03 18:47:50;;;;;;;;;23.50;20.00;;;;;;;;5048321;28;45613;-70
2021/12/03 18:55:56;;;;;;;;;16.00;16.00;;;;;;;;5047428;28;45736;-73
2021/12/03 18:58:04;;;;;;;;;18.00;17.75;;;;;;;;5045845;28;45584;-70
2021/12/03 19:00:35;;;;;;;;;15.25;12.25;;;;;;;;5060339;27;45706;-70
2021/12/03 19:03:07;;;;;;;;;12.25;11.50;;;;;;;;5097876;27;45537;-70
2021/12/03 19:08:08;;;;;;;;;17.25;14.00;;;;;;;;5107893;27;45669;-70
2021/12/03 19:10:37;;;;;;;;;15.00;15.00;;;;;;;;5093135;27;45706;-72
2021/12/03 19:13:06;;;;;;;;;21.25;19.75;;;;;;;;5096029;27;45892;-70
2021/12/03 19:15:32;;;;;;;;;12.50;12.25;;;;;;;;5110796;27;46412;-75
2021/12/03 19:18:01;;;;;;;;;9.50;9.50;;;;;;;;5089364;27;45741;-74
2021/12/03 19:20:30;;;;;;;;;8.50;8.00;;;;;;;;5089521;27;45468;-74
2021/12/03 19:22:55;;;;;;;;;13.75;10.75;;;;;;;;5090355;27;45605;-74
2021/12/03 19:25:21;;;;;;;;;14.25;13.25;;;;;;;;5076849;27;47108;-75
2021/12/03 19:27:46;;;;;;;;;13.00;13.00;;;;;;;;5107848;27;45510;-74
2021/12/03 19:30:11;;;;;;;;;13.75;13.00;;;;;;;;5108277;27;45662;-77
2021/12/03 19:32:37;;;;;;;;;7.75;7.75;;;;;;;;5106765;27;45552;-75
2021/12/03 19:35:03;;;;;;;;;15.75;14.25;;;;;;;;5087960;27;46972;-73
2021/12/03 19:37:29;;;;;;;;;13.00;12.00;;;;;;;;5111672;27;45509;-75
2021/12/03 19:40:00;;;;;;;;;17.75;16.25;;;;;;;;5112614;27;45559;-74
2021/12/03 19:42:34;;;;;;;;;17.00;13.25;;;;;;;;5120334;27;45577;-72
2021/12/03 19:45:05;;;;;;;;;18.25;16.50;;;;;;;;5103181;27;45542;-67
2021/12/03 19:47:46;;;;;;;;;16.75;16.75;;;;;;;;5088150;27;45479;-68
2021/12/03 19:55:28;;;;;;;;;11.25;11.25;;;;;;;;5034419;28;45561;-69
2021/12/03 19:57:54;;;;;;;;;12.75;11.50;;;;;;;;5031168;28;45450;-66
2021/12/03 20:00:22;;;;;;;;;14.00;13.50;;;;;;;;5050737;28;45618;-67
2021/12/03 20:02:48;;;;;;;;;13.00;13.00;;;;;;;;5028960;28;45560;-67
2021/12/03 20:05:13;;;;;;;;;14.00;13.00;;;;;;;;5030870;28;45783;-65
2021/12/03 20:07:39;;;;;;;;;16.00;14.50;;;;;;;;5050304;28;45491;-65
2021/12/03 20:10:10;;;;;;;;;13.00;13.00;;;;;;;;5048876;28;46154;-76
2021/12/03 20:12:35;;;;;;;;;18.25;14.00;;;;;;;;5047109;28;45962;-73
2021/12/03 20:15:05;;;;;;;;;20.50;19.50;;;;;;;;5029041;28;48081;-69
2021/12/03 20:17:33;;;;;;;;;17.75;17.00;;;;;;;;5049648;28;45562;-69
2021/12/03 20:20:00;;;;;;;;;14.75;13.75;;;;;;;;5044921;28;45917;-66
2021/12/03 20:27:54;;;;;;;;;16.00;16.00;;;;;;;;5042848;28;45693;-63
2021/12/03 20:38:07;;;;;;;;;12.75;12.75;;;;;;;;5110466;27;45372;-65
2021/12/03 20:40:34;;;;;;;;;11.25;10.25;;;;;;;;5111121;27;45652;-65
2021/12/03 20:51:06;;;;;;;;;12.25;12.25;;;;;;;;5101423;27;45694;-66
2021/12/03 21:09:46;;;;;;;;;11.00;11.00;;;;;;;;5104545;27;45458;-64
2021/12/03 21:12:22;;;;;;;;;12.50;12.00;;;;;;;;5107087;27;45599;-64
2021/12/03 21:14:57;;;;;;;;;6.75;6.75;;;;;;;;5103299;27;45737;-66
2021/12/03 21:18:08;;;;;;;;;9.00;9.00;;;;;;;;5098349;27;45612;-68
2021/12/03 21:20:24;;;;;;;;;7.75;7.75;;;;;;;;5099532;27;45949;-66
2021/12/03 21:22:52;;;;;;;;;8.50;8.00;;;;;;;;5085494;27;45501;-67
2021/12/03 21:25:21;;;;;;;;;5.75;5.75;;;;;;;;5092149;27;45490;-67
2021/12/03 21:27:54;;;;;;;;;9.00;5.00;;;;;;;;5105160;27;46392;-68
2021/12/03 21:32:54;;;;;;;;;13.75;11.25;;;;;;;;5103097;27;45652;-68
2021/12/03 21:43:29;;;;;;;;;8.00;8.00;;;;;;;;5113094;27;45529;-64
2021/12/03 21:45:54;;;;;;;;;14.75;13.00;;;;;;;;5107623;27;45472;-70
2021/12/03 21:48:20;;;;;;;;;11.75;10.75;;;;;;;;5091272;27;47539;-64
2021/12/03 21:50:45;;;;;;;;;9.00;8.75;;;;;;;;5105994;27;45528;-68
2021/12/03 21:53:10;;;;;;;;;10.75;8.00;;;;;;;;5111986;27;45334;-65
2021/12/03 21:55:38;;;;;;;;;4.00;4.00;;;;;;;;5113628;27;45312;-67
2021/12/03 21:58:04;;;;;;;;;5.25;5.25;;;;;;;;5086888;27;46302;-66
2021/12/03 22:00:29;;;;;;;;;9.00;5.25;;;;;;;;5114387;27;45491;-66
2021/12/03 22:02:55;;;;;;;;;6.50;6.50;;;;;;;;5105128;27;45759;-69
2021/12/03 22:05:20;;;;;;;;;8.75;8.75;;;;;;;;5092637;27;46169;-66
2021/12/03 22:07:45;;;;;;;;;10.00;6.00;;;;;;;;5104420;27;46778;-64
2021/12/03 22:10:11;;;;;;;;;7.25;7.25;;;;;;;;5108149;27;45830;-65
2021/12/03 22:12:36;;;;;;;;;7.00;7.00;;;;;;;;5096605;27;45443;-65
2021/12/03 22:15:02;;;;;;;;;5.25;5.25;;;;;;;;5108950;27;45379;-65
2021/12/03 22:17:27;;;;;;;;;9.50;9.00;;;;;;;;5108034;27;45505;-67
2021/12/03 22:19:52;;;;;;;;;9.25;8.25;;;;;;;;5082437;27;45671;-66
2021/12/03 22:22:18;;;;;;;;;10.25;6.50;;;;;;;;5095343;27;45408;-68
2021/12/03 22:24:43;;;;;;;;;10.00;10.00;;;;;;;;5114526;27;45443;-67
2021/12/03 22:27:12;;;;;;;;;10.50;10.00;;;;;;;;5108954;27;45703;-67
2021/12/03 22:29:38;;;;;;;;;13.00;11.75;;;;;;;;5112739;27;45520;-69
2021/12/03 22:32:04;;;;;;;;;14.50;12.75;;;;;;;;5086480;27;48124;-68
2021/12/03 22:34:30;;;;;;;;;11.50;11.50;;;;;;;;5112689;27;45675;-67
2021/12/03 22:36:55;;;;;;;;;10.50;10.50;;;;;;;;5097042;27;48602;-69
2021/12/03 22:39:20;;;;;;;;;14.50;12.75;;;;;;;;5091270;27;45923;-69
2021/12/03 22:41:48;;;;;;;;;9.00;9.00;;;;;;;;5110667;27;45399;-69
2021/12/03 22:44:14;;;;;;;;;11.25;11.25;;;;;;;;5088866;27;45490;-74
2021/12/03 22:54:27;;;;;;;;;6.25;5.75;;;;;;;;5051682;28;45664;-76
2021/12/03 22:56:53;;;;;;;;;8.00;8.00;;;;;;;;5046723;28;47826;-74
2021/12/03 22:59:18;;;;;;;;;8.75;8.00;;;;;;;;5071875;28;45579;-75
2021/12/03 23:01:43;;;;;;;;;8.50;6.00;;;;;;;;5055191;28;45655;-73
2021/12/03 23:04:09;;;;;;;;;9.00;8.00;;;;;;;;5038915;27;45835;-73